Puropanmaru No.3 — JD3322 — position and weather

sailwx.info

Track history (hours):
 
Tides and Currents Weather Stations Pressure Air Temp Water Temp Dewpoint Dewpoint Depression Visibility Wind Speed Wind Dir Waves Ship Positions

Puropanmaru No.3

Last reported at 2016-Aug-24 23:20 UTC. Time now 2016-Aug-25 02:43 UTC.
Position N 34°32' E 135°25'.

Length 68 m; draft 4.5 m.

Type: Tanker. MMSI: 431003365.

Date/timePositionNaut miles runAvg speedWind from/ knotsBaromVisibWave heightAir tempDewpointWater temp
2016-Aug-24 23:20N 34°32' E 135°25'0 0.2
2016-Aug-24 22:32N 34°33' E 135°25'9 9.1
2016-Aug-24 21:33N 34°31' E 135°15'1211.9
2016-Aug-24 20:33N 34°27' E 135°01'239 6.0
2016-Aug-23 04:33N 35°15' E 139°46'1111.0
2016-Aug-23 03:33N 35°26' E 139°45'1212.1
2016-Aug-23 02:33N 35°31' E 139°59'3 2.9
2016-Aug-23 01:33N 35°31' E 140°02'0 0.0
2016-Aug-23 00:33N 35°31' E 140°02'0 0.0
2016-Aug-22 23:33N 35°31' E 140°02'1 1.2
2016-Aug-22 22:33N 35°31' E 140°01'5 4.8
2016-Aug-22 21:26N 35°28' E 139°56'0 0.0
2016-Aug-22 20:17N 35°28' E 139°56'0 0.0
2016-Aug-22 19:29N 35°28' E 139°56'0 0.0
2016-Aug-22 18:29N 35°28' E 139°56'0 0.0
2016-Aug-22 17:32N 35°28' E 139°56'0 0.0
2016-Aug-22 16:32N 35°28' E 139°56'0 0.0
2016-Aug-22 15:32N 35°28' E 139°56'0 0.0
2016-Aug-22 14:25N 35°28' E 139°56'0 0.0
2016-Aug-22 13:32N 35°28' E 139°56'0 0.0
2016-Aug-22 12:32N 35°28' E 139°56'0 0.0
2016-Aug-22 11:27N 35°28' E 139°56'0 0.0
2016-Aug-22 10:28N 35°28' E 139°56'0 0.0
2016-Aug-22 09:32N 35°28' E 139°56'0 0.0
2016-Aug-22 08:29N 35°28' E 139°56'0 0.0
2016-Aug-22 07:34N 35°28' E 139°56'0 0.0
2016-Aug-22 05:32N 35°28' E 139°56'0 0.1
2016-Aug-22 04:30N 35°28' E 139°56'0 0.0
2016-Aug-22 03:31N 35°28' E 139°56'0 0.0
2016-Aug-22 02:30N 35°28' E 139°56'0 0.0
2016-Aug-22 01:30N 35°28' E 139°56'0 0.0
2016-Aug-22 00:33N 35°28' E 139°56'0 0.0
2016-Aug-21 23:33N 35°28' E 139°56'0 0.0
2016-Aug-21 22:27N 35°28' E 139°56'0 0.1
2016-Aug-21 21:32N 35°28' E 139°56'0 0.0
2016-Aug-21 20:33N 35°28' E 139°56'0 0.0
2016-Aug-21 19:31N 35°28' E 139°56'0 0.0
2016-Aug-21 18:27N 35°28' E 139°56'0 0.0
2016-Aug-21 17:33N 35°28' E 139°56'0 0.0
2016-Aug-21 16:33N 35°28' E 139°56'0 0.0
2016-Aug-21 15:30N 35°28' E 139°56'0 0.0
2016-Aug-21 14:34N 35°28' E 139°56'0 0.0
2016-Aug-21 13:32N 35°28' E 139°56'0 0.0
2016-Aug-21 12:29N 35°28' E 139°56'0 0.0
2016-Aug-21 11:26N 35°28' E 139°56'0 0.0
2016-Aug-21 10:32N 35°28' E 139°56'0 0.0
2016-Aug-21 09:32N 35°28' E 139°56'0 0.1
2016-Aug-21 08:33N 35°28' E 139°56'1111.4
2016-Aug-21 07:33N 35°21' E 139°45'1212.1
2016-Aug-21 06:33N 35°09' E 139°46'253 5.5
2016-Aug-19 08:17N 34°06' E 134°48'25311.1
2016-Aug-18 09:26N 35°11' E 139°45'1011.6
2016-Aug-18 08:34N 35°21' E 139°42'1111.5
2016-Aug-18 07:34N 35°30' E 139°50'0 0.4
2016-Aug-18 06:33N 35°30' E 139°51'1 1.2
2016-Aug-18 05:34N 35°31' E 139°52'9 9.3
2016-Aug-18 04:34N 35°32' E 140°03'0 0.0
2016-Aug-18 03:34N 35°32' E 140°03'0 0.0
2016-Aug-18 02:34N 35°32' E 140°03'0 0.0
2016-Aug-18 01:34N 35°32' E 140°03'0 0.0
2016-Aug-18 00:34N 35°32' E 140°03'0 0.0
2016-Aug-17 23:34N 35°32' E 140°03'7 7.1
2016-Aug-17 22:33N 35°28' E 139°56'0 0.0
2016-Aug-17 21:32N 35°28' E 139°56'1010.2
2016-Aug-17 20:33N 35°23' E 139°46'1211.9
2016-Aug-17 19:33N 35°11' E 139°47'  
2016-Aug-15 09:10N 34°05' E 135°00'812.6
2016-Aug-15 08:33N 34°12' E 134°59'1111.6
2016-Aug-15 07:33N 34°24' E 135°00'1211.7
2016-Aug-15 06:33N 34°35' E 135°03'  
Track history (hours):
 
Tides and Currents Weather Stations Pressure Air Temp Water Temp Dewpoint Dewpoint Depression Visibility Wind Speed Wind Dir Waves Ship Positions

Puropanmaru No.3

Last reported at 2016-Aug-24 23:20 UTC. Time now 2016-Aug-25 02:43 UTC.
Position N 34°32' E 135°25'.

Length 68 m; draft 4.5 m.

Type: Tanker. MMSI: 431003365.

Date/timePositionNaut miles runAvg speedWind from/ knotsBaromVisibWave heightAir tempDewpointWater temp
2016-Aug-24 23:20N 34°32' E 135°25'0 0.2
2016-Aug-24 22:32N 34°33' E 135°25'9 9.1
2016-Aug-24 21:33N 34°31' E 135°15'1211.9
2016-Aug-24 20:33N 34°27' E 135°01'239 6.0
2016-Aug-23 04:33N 35°15' E 139°46'1111.0
2016-Aug-23 03:33N 35°26' E 139°45'1212.1
2016-Aug-23 02:33N 35°31' E 139°59'3 2.9
2016-Aug-23 01:33N 35°31' E 140°02'0 0.0
2016-Aug-23 00:33N 35°31' E 140°02'0 0.0
2016-Aug-22 23:33N 35°31' E 140°02'1 1.2
2016-Aug-22 22:33N 35°31' E 140°01'5 4.8
2016-Aug-22 21:26N 35°28' E 139°56'0 0.0
2016-Aug-22 20:17N 35°28' E 139°56'0 0.0
2016-Aug-22 19:29N 35°28' E 139°56'0 0.0
2016-Aug-22 18:29N 35°28' E 139°56'0 0.0
2016-Aug-22 17:32N 35°28' E 139°56'0 0.0
2016-Aug-22 16:32N 35°28' E 139°56'0 0.0
2016-Aug-22 15:32N 35°28' E 139°56'0 0.0
2016-Aug-22 14:25N 35°28' E 139°56'0 0.0
2016-Aug-22 13:32N 35°28' E 139°56'0 0.0
2016-Aug-22 12:32N 35°28' E 139°56'0 0.0
2016-Aug-22 11:27N 35°28' E 139°56'0 0.0
2016-Aug-22 10:28N 35°28' E 139°56'0 0.0
2016-Aug-22 09:32N 35°28' E 139°56'0 0.0
2016-Aug-22 08:29N 35°28' E 139°56'0 0.0
2016-Aug-22 07:34N 35°28' E 139°56'0 0.0
2016-Aug-22 05:32N 35°28' E 139°56'0 0.1
2016-Aug-22 04:30N 35°28' E 139°56'0 0.0
2016-Aug-22 03:31N 35°28' E 139°56'0 0.0
2016-Aug-22 02:30N 35°28' E 139°56'0 0.0
2016-Aug-22 01:30N 35°28' E 139°56'0 0.0
2016-Aug-22 00:33N 35°28' E 139°56'0 0.0
2016-Aug-21 23:33N 35°28' E 139°56'0 0.0
2016-Aug-21 22:27N 35°28' E 139°56'0 0.1
2016-Aug-21 21:32N 35°28' E 139°56'0 0.0
2016-Aug-21 20:33N 35°28' E 139°56'0 0.0
2016-Aug-21 19:31N 35°28' E 139°56'0 0.0
2016-Aug-21 18:27N 35°28' E 139°56'0 0.0
2016-Aug-21 17:33N 35°28' E 139°56'0 0.0
2016-Aug-21 16:33N 35°28' E 139°56'0 0.0
2016-Aug-21 15:30N 35°28' E 139°56'0 0.0
2016-Aug-21 14:34N 35°28' E 139°56'0 0.0
2016-Aug-21 13:32N 35°28' E 139°56'0 0.0
2016-Aug-21 12:29N 35°28' E 139°56'0 0.0
2016-Aug-21 11:26N 35°28' E 139°56'0 0.0
2016-Aug-21 10:32N 35°28' E 139°56'0 0.0
2016-Aug-21 09:32N 35°28' E 139°56'0 0.1
2016-Aug-21 08:33N 35°28' E 139°56'1111.4
2016-Aug-21 07:33N 35°21' E 139°45'1212.1
2016-Aug-21 06:33N 35°09' E 139°46'253 5.5
2016-Aug-19 08:17N 34°06' E 134°48'25311.1
2016-Aug-18 09:26N 35°11' E 139°45'1011.6
2016-Aug-18 08:34N 35°21' E 139°42'1111.5
2016-Aug-18 07:34N 35°30' E 139°50'0 0.4
2016-Aug-18 06:33N 35°30' E 139°51'1 1.2
2016-Aug-18 05:34N 35°31' E 139°52'9 9.3
2016-Aug-18 04:34N 35°32' E 140°03'0 0.0
2016-Aug-18 03:34N 35°32' E 140°03'0 0.0
2016-Aug-18 02:34N 35°32' E 140°03'0 0.0
2016-Aug-18 01:34N 35°32' E 140°03'0 0.0
2016-Aug-18 00:34N 35°32' E 140°03'0 0.0
2016-Aug-17 23:34N 35°32' E 140°03'7 7.1
2016-Aug-17 22:33N 35°28' E 139°56'0 0.0
2016-Aug-17 21:32N 35°28' E 139°56'1010.2
2016-Aug-17 20:33N 35°23' E 139°46'1211.9
2016-Aug-17 19:33N 35°11' E 139°47'  
2016-Aug-15 09:10N 34°05' E 135°00'812.6
2016-Aug-15 08:33N 34°12' E 134°59'1111.6
2016-Aug-15 07:33N 34°24' E 135°00'1211.7
2016-Aug-15 06:33N 34°35' E 135°03'  

Dump ship's entire track history